Time;durP1;ratioP1;P1;durP2;ratioP2;P2;SDS_P1;SDS_P2;PMS_P1;PMS_P2;Temp;Humidity;BMP_temperature;BMP_pressure;BME280_temperature;BME280_humidity;BME280_pressure;Samples;Min_cycle;Max_cycle;Signal;HPM_P1;HPM_P2
2021/10/21 00:01:39;;;;;;;19.02;8.52;;;;;;;;;;5003653;28;20062;-83
2021/10/21 00:04:05;;;;;;;13.48;7.47;;;;;;;;;;5003542;28;20502;-82
2021/10/21 00:06:34;;;;;;;18.70;8.63;;;;;;;;;;5005007;28;20053;-83
2021/10/21 00:09:01;;;;;;;11.50;7.93;;;;;;;;;;5003305;28;20058;-83
2021/10/21 00:11:28;;;;;;;14.95;8.02;;;;;;;;;;5004402;28;20057;-84
2021/10/21 00:13:55;;;;;;;16.05;7.85;;;;;;;;;;5003168;28;20053;-83
2021/10/21 00:16:22;;;;;;;11.77;8.07;;;;;;;;;;5003900;28;20342;-83
2021/10/21 00:18:50;;;;;;;16.92;8.35;;;;;;;;;;5003386;28;20062;-84
2021/10/21 00:21:20;;;;;;;18.63;8.93;;;;;;;;;;5019485;28;20054;-83
2021/10/21 00:23:47;;;;;;;14.10;9.13;;;;;;;;;;5001842;28;20115;-84
2021/10/21 00:26:13;;;;;;;11.93;7.68;;;;;;;;;;5003000;28;20153;-83
2021/10/21 00:28:40;;;;;;;17.45;8.45;;;;;;;;;;5009383;28;20088;-83
2021/10/21 00:31:07;;;;;;;15.25;8.18;;;;;;;;;;5011917;28;20068;-83
2021/10/21 00:33:37;;;;;;;13.55;8.35;;;;;;;;;;5011194;28;20065;-83
2021/10/21 00:36:04;;;;;;;12.73;7.00;;;;;;;;;;5007667;28;20117;-83
2021/10/21 00:38:30;;;;;;;14.52;7.45;;;;;;;;;;5009923;28;20092;-83
2021/10/21 00:40:58;;;;;;;14.15;6.60;;;;;;;;;;5009967;28;20053;-84
2021/10/21 00:43:25;;;;;;;11.68;6.30;;;;;;;;;;5001752;28;20125;-84
2021/10/21 00:45:52;;;;;;;13.70;5.78;;;;;;;;;;5012939;28;20058;-82
2021/10/21 00:48:20;;;;;;;11.65;5.70;;;;;;;;;;5011134;28;20153;-85
2021/10/21 00:50:47;;;;;;;12.73;6.05;;;;;;;;;;4983478;28;20077;-84
2021/10/21 00:53:14;;;;;;;11.40;5.63;;;;;;;;;;4981276;28;20428;-85
2021/10/21 00:55:42;;;;;;;10.10;5.22;;;;;;;;;;4980832;28;20217;-85
2021/10/21 00:58:13;;;;;;;12.23;5.53;;;;;;;;;;4979948;28;20054;-86
2021/10/21 01:00:48;;;;;;;11.88;5.55;;;;;;;;;;4981250;28;20065;-85
2021/10/21 01:03:21;;;;;;;13.55;5.43;;;;;;;;;;4980980;28;20085;-85
2021/10/21 01:05:49;;;;;;;14.00;5.18;;;;;;;;;;4999849;28;20061;-85
2021/10/21 01:08:15;;;;;;;11.32;4.65;;;;;;;;;;4981826;28;20058;-85
2021/10/21 01:10:43;;;;;;;12.75;5.57;;;;;;;;;;4981063;28;20333;-86
2021/10/21 01:13:10;;;;;;;16.77;5.13;;;;;;;;;;4998394;28;20050;-86
2021/10/21 01:15:37;;;;;;;11.35;5.22;;;;;;;;;;4983527;28;20086;-88
2021/10/21 01:31:39;;;;;;;8.88;3.10;;;;;;;;;;5007933;28;20073;-88
2021/10/21 01:38:30;;;;;;;;;;;;;;;;;;;;;
2021/10/21 01:41:21;;;;;;;13.75;3.10;;;;;;;;;;5043466;28;20053;-89
2021/10/21 01:43:49;;;;;;;7.78;2.70;;;;;;;;;;5042172;28;20061;-88
2021/10/21 01:46:16;;;;;;;12.02;3.30;;;;;;;;;;5039579;28;20124;-88
2021/10/21 01:48:43;;;;;;;14.23;2.80;;;;;;;;;;5046121;28;20053;-89
2021/10/21 01:51:13;;;;;;;11.23;2.92;;;;;;;;;;5066805;28;20052;-90
2021/10/21 01:53:40;;;;;;;8.90;1.58;;;;;;;;;;5044160;28;20057;-87
2021/10/21 01:56:11;;;;;;;5.78;1.90;;;;;;;;;;5046336;28;20063;-87
2021/10/21 01:58:37;;;;;;;6.50;2.00;;;;;;;;;;5046590;28;20067;-87
2021/10/21 02:01:04;;;;;;;6.68;1.52;;;;;;;;;;5061449;28;20053;-87
2021/10/21 02:03:31;;;;;;;6.97;1.88;;;;;;;;;;5061717;28;20049;-88
2021/10/21 02:05:57;;;;;;;13.73;2.10;;;;;;;;;;5060385;28;20338;-87
2021/10/21 02:08:24;;;;;;;11.20;2.70;;;;;;;;;;5042921;28;20056;-88
2021/10/21 02:10:52;;;;;;;11.07;2.53;;;;;;;;;;5041835;28;20045;-86
2021/10/21 02:13:19;;;;;;;7.65;2.50;;;;;;;;;;5042585;28;20049;-88
2021/10/21 02:15:45;;;;;;;12.23;1.75;;;;;;;;;;5044532;28;20057;-89
2021/10/21 02:18:13;;;;;;;7.32;1.50;;;;;;;;;;5043953;28;20056;-88
2021/10/21 02:20:39;;;;;;;9.75;1.95;;;;;;;;;;5042876;28;20647;-89
2021/10/21 02:23:06;;;;;;;8.82;2.00;;;;;;;;;;5043900;28;20159;-89
2021/10/21 02:25:33;;;;;;;10.95;2.35;;;;;;;;;;5045808;28;20144;-89
2021/10/21 02:28:00;;;;;;;9.07;2.60;;;;;;;;;;5062488;28;20056;-90
2021/10/21 02:30:26;;;;;;;10.07;4.20;;;;;;;;;;5061617;28;20348;-90
2021/10/21 02:32:53;;;;;;;7.82;3.33;;;;;;;;;;5043197;28;20117;-90
2021/10/21 02:35:22;;;;;;;12.15;4.30;;;;;;;;;;5043195;28;20324;-90
2021/10/21 02:37:52;;;;;;;11.98;4.25;;;;;;;;;;5042987;28;20067;-90
2021/10/21 02:40:19;;;;;;;12.30;6.03;;;;;;;;;;5043557;28;20107;-89
2021/10/21 02:42:46;;;;;;;13.82;8.27;;;;;;;;;;5040923;28;20301;-87
2021/10/21 02:45:13;;;;;;;16.25;9.32;;;;;;;;;;5042483;28;20049;-88
2021/10/21 02:47:40;;;;;;;15.55;8.57;;;;;;;;;;5043510;28;20072;-89
2021/10/21 02:50:07;;;;;;;14.60;8.95;;;;;;;;;;5043797;28;20057;-89
2021/10/21 02:52:33;;;;;;;17.25;9.25;;;;;;;;;;5043317;28;20409;-89
2021/10/21 02:55:04;;;;;;;18.55;9.07;;;;;;;;;;5043790;28;20263;-90
2021/10/21 02:57:37;;;;;;;12.27;8.20;;;;;;;;;;5045163;28;20080;-89
2021/10/21 03:00:08;;;;;;;11.68;8.60;;;;;;;;;;5044327;28;20053;-90
2021/10/21 03:02:36;;;;;;;18.15;7.68;;;;;;;;;;5060859;28;20230;-87
2021/10/21 03:05:04;;;;;;;15.60;7.70;;;;;;;;;;5041682;28;20057;-86
2021/10/21 03:07:31;;;;;;;14.07;7.78;;;;;;;;;;5041842;28;20135;-87
2021/10/21 03:09:58;;;;;;;12.15;7.68;;;;;;;;;;5043046;28;20084;-88
2021/10/21 03:12:25;;;;;;;17.40;7.80;;;;;;;;;;5042889;28;20433;-87
2021/10/21 03:14:53;;;;;;;11.65;7.50;;;;;;;;;;5042711;28;20052;-89
2021/10/21 03:17:20;;;;;;;13.02;7.43;;;;;;;;;;5045427;28;20071;-90
2021/10/21 03:19:47;;;;;;;13.27;6.97;;;;;;;;;;5045253;28;20117;-90
2021/10/21 03:22:39;;;;;;;12.15;5.82;;;;;;;;;;5044939;28;20419;-90
2021/10/21 03:25:17;;;;;;;12.50;5.13;;;;;;;;;;5044803;28;20057;-89
2021/10/21 03:27:54;;;;;;;12.43;4.28;;;;;;;;;;5042220;28;20072;-88
2021/10/21 03:30:25;;;;;;;9.88;4.72;;;;;;;;;;5042776;28;20063;-87
2021/10/21 03:47:52;;;;;;;6.72;2.72;;;;;;;;;;4860603;29;20165;-86
2021/10/21 03:50:59;;;;;;;3.63;2.20;;;;;;;;;;4846081;29;20072;-87
2021/10/21 03:57:30;;;;;;;4.40;1.77;;;;;;;;;;4808424;29;20518;-88
2021/10/21 04:00:30;;;;;;;6.10;2.35;;;;;;;;;;4881095;29;20111;-88
2021/10/21 04:03:14;;;;;;;5.25;2.35;;;;;;;;;;4884936;29;20077;-88
2021/10/21 04:05:48;;;;;;;5.90;2.50;;;;;;;;;;4885293;29;20060;-89
2021/10/21 04:08:18;;;;;;;4.72;2.33;;;;;;;;;;4942674;29;20055;-88
2021/10/21 04:10:45;;;;;;;7.28;2.22;;;;;;;;;;4940202;29;20071;-88
2021/10/21 04:13:17;;;;;;;7.68;1.95;;;;;;;;;;4957490;28;20096;-87
2021/10/21 04:16:26;;;;;;;;;;;;;;;;;;;;;
2021/10/21 04:19:14;;;;;;;9.10;1.52;;;;;;;;;;5023601;28;20061;-87
2021/10/21 04:21:51;;;;;;;8.25;1.20;;;;;;;;;;5020328;28;20072;-86
2021/10/21 04:24:17;;;;;;;4.78;1.63;;;;;;;;;;5019907;28;20093;-87
2021/10/21 04:26:44;;;;;;;6.00;1.40;;;;;;;;;;5022549;28;20382;-88
2021/10/21 04:29:12;;;;;;;2.13;1.15;;;;;;;;;;5019444;28;20140;-88
2021/10/21 04:31:38;;;;;;;7.55;1.30;;;;;;;;;;5019425;28;20050;-87
2021/10/21 04:34:15;;;;;;;6.10;1.33;;;;;;;;;;5019109;28;20057;-87
2021/10/21 04:36:41;;;;;;;2.58;0.88;;;;;;;;;;5018947;28;20298;-89
2021/10/21 04:39:08;;;;;;;5.95;1.25;;;;;;;;;;5016288;28;20049;-88
2021/10/21 04:41:35;;;;;;;5.85;1.80;;;;;;;;;;5016447;28;20066;-89
2021/10/21 04:44:02;;;;;;;8.23;1.55;;;;;;;;;;5016374;28;20313;-89
2021/10/21 04:46:32;;;;;;;10.20;1.50;;;;;;;;;;5016215;28;20110;-89
2021/10/21 04:49:12;;;;;;;4.78;1.40;;;;;;;;;;5018903;28;20127;-88
2021/10/21 04:51:46;;;;;;;3.58;1.45;;;;;;;;;;5008267;28;20122;-88
2021/10/21 04:54:16;;;;;;;7.63;1.05;;;;;;;;;;4999532;28;20255;-87
2021/10/21 04:56:45;;;;;;;4.60;1.40;;;;;;;;;;4999916;28;20054;-87
2021/10/21 04:59:14;;;;;;;8.68;1.23;;;;;;;;;;4995887;28;20058;-87
2021/10/21 05:01:43;;;;;;;8.63;1.42;;;;;;;;;;4995347;28;20462;-87
2021/10/21 05:04:12;;;;;;;3.75;1.10;;;;;;;;;;4993918;28;20062;-86
2021/10/21 05:06:40;;;;;;;1.33;0.90;;;;;;;;;;4996366;28;20350;-87
2021/10/21 05:09:07;;;;;;;6.30;1.00;;;;;;;;;;4995923;28;20136;-86
2021/10/21 05:11:35;;;;;;;4.07;1.38;;;;;;;;;;4994410;28;20423;-87
2021/10/21 05:14:04;;;;;;;5.50;0.93;;;;;;;;;;4993149;28;20145;-86
2021/10/21 05:16:33;;;;;;;4.95;1.05;;;;;;;;;;4999412;28;20061;-86
2021/10/21 05:19:04;;;;;;;3.53;1.10;;;;;;;;;;5015250;28;20116;-86
2021/10/21 05:21:40;;;;;;;3.28;1.00;;;;;;;;;;5015155;28;20382;-86
2021/10/21 05:24:08;;;;;;;6.45;1.15;;;;;;;;;;5017568;28;20074;-87
2021/10/21 05:26:39;;;;;;;7.53;0.52;;;;;;;;;;5017163;28;20057;-86
2021/10/21 05:29:07;;;;;;;4.03;1.20;;;;;;;;;;5018145;28;20080;-87
2021/10/21 05:31:54;;;;;;;4.28;1.00;;;;;;;;;;5018401;28;20050;-89
2021/10/21 05:34:38;;;;;;;4.38;1.20;;;;;;;;;;5019838;28;20461;-87
2021/10/21 05:37:08;;;;;;;4.03;1.15;;;;;;;;;;5009873;28;20054;-87
2021/10/21 05:39:41;;;;;;;5.82;1.10;;;;;;;;;;5008553;28;20111;-89
2021/10/21 05:42:09;;;;;;;5.95;0.98;;;;;;;;;;5017469;28;20057;-87
2021/10/21 05:44:40;;;;;;;7.78;0.90;;;;;;;;;;5015736;28;20057;-86
2021/10/21 05:47:07;;;;;;;3.00;0.70;;;;;;;;;;4997014;28;20142;-87
2021/10/21 05:49:40;;;;;;;3.78;0.80;;;;;;;;;;5016741;28;20546;-90
2021/10/21 05:52:24;;;;;;;4.90;1.05;;;;;;;;;;5017554;28;20058;-89
2021/10/21 05:55:29;;;;;;;;;;;;;;;;;;;;;
2021/10/21 05:58:25;;;;;;;5.95;0.80;;;;;;;;;;4911755;29;20075;-88
2021/10/21 06:00:55;;;;;;;6.60;1.77;;;;;;;;;;4918234;29;20079;-88
2021/10/21 06:03:26;;;;;;;3.85;0.80;;;;;;;;;;4917174;29;20052;-88
2021/10/21 06:25:35;;;;;;;8.10;1.40;;;;;;;;;;5012381;28;20077;-85
2021/10/21 06:28:07;;;;;;;7.53;1.55;;;;;;;;;;5036930;28;20204;-85
2021/10/21 06:30:53;;;;;;;3.05;1.30;;;;;;;;;;5058993;28;20060;-86
2021/10/21 06:33:45;;;;;;;5.13;1.00;;;;;;;;;;5038329;28;20349;-87
2021/10/21 06:49:30;;;;;;;0.75;0.40;;;;;;;;;;5041126;28;20049;-88
2021/10/21 06:52:00;;;;;;;2.80;0.52;;;;;;;;;;5026383;28;20037;-86
2021/10/21 06:54:27;;;;;;;0.57;0.38;;;;;;;;;;5023425;28;20231;-87
2021/10/21 06:57:13;;;;;;;1.83;0.30;;;;;;;;;;5022041;28;20088;-89
2021/10/21 06:59:46;;;;;;;1.02;0.40;;;;;;;;;;5023110;28;20149;-91
2021/10/21 07:09:08;;;;;;;1.50;0.47;;;;;;;;;;4856901;29;20126;-91
2021/10/21 07:11:50;;;;;;;2.25;0.30;;;;;;;;;;4859452;29;20081;-87
2021/10/21 07:14:25;;;;;;;2.63;0.50;;;;;;;;;;4954914;29;20122;-88
2021/10/21 07:16:52;;;;;;;0.80;0.20;;;;;;;;;;4955962;29;20094;-87
2021/10/21 07:19:22;;;;;;;1.90;0.43;;;;;;;;;;4939739;29;20621;-88
2021/10/21 07:21:50;;;;;;;6.15;0.50;;;;;;;;;;4957307;29;20054;-88
2021/10/21 07:24:20;;;;;;;4.82;0.88;;;;;;;;;;4940109;29;20114;-87
2021/10/21 07:26:47;;;;;;;5.65;0.60;;;;;;;;;;4958485;29;20055;-88
2021/10/21 07:29:20;;;;;;;3.13;0.55;;;;;;;;;;4956303;29;20138;-88
2021/10/21 07:31:48;;;;;;;4.43;0.40;;;;;;;;;;4938677;29;20185;-86
2021/10/21 07:34:28;;;;;;;1.98;0.60;;;;;;;;;;4967848;28;20064;-86
2021/10/21 07:37:04;;;;;;;6.30;0.90;;;;;;;;;;5018569;28;20061;-86
2021/10/21 07:39:36;;;;;;;4.25;0.68;;;;;;;;;;5035016;28;20393;-86
2021/10/21 07:42:12;;;;;;;2.15;0.52;;;;;;;;;;5035793;28;20594;-88
2021/10/21 07:44:40;;;;;;;6.10;0.40;;;;;;;;;;5035705;28;20062;-87
2021/10/21 07:47:09;;;;;;;1.23;0.32;;;;;;;;;;5035540;28;20067;-87
2021/10/21 07:49:37;;;;;;;5.05;0.60;;;;;;;;;;5037664;28;20116;-86
2021/10/21 07:52:11;;;;;;;4.47;0.52;;;;;;;;;;5057329;28;20084;-86
2021/10/21 07:54:38;;;;;;;6.18;0.50;;;;;;;;;;5036842;28;20100;-86
2021/10/21 07:57:06;;;;;;;3.17;0.80;;;;;;;;;;5039176;28;20120;-87
2021/10/21 07:59:43;;;;;;;4.55;0.68;;;;;;;;;;5042530;28;20063;-88
2021/10/21 08:02:11;;;;;;;5.53;0.50;;;;;;;;;;5037592;28;20071;-86
2021/10/21 08:04:40;;;;;;;2.30;0.80;;;;;;;;;;5040242;28;20519;-88
2021/10/21 08:07:08;;;;;;;2.05;0.70;;;;;;;;;;5058479;28;20060;-87
2021/10/21 08:09:38;;;;;;;4.55;0.80;;;;;;;;;;5021955;28;20249;-87
2021/10/21 08:12:08;;;;;;;3.67;0.30;;;;;;;;;;5055452;28;20076;-87
2021/10/21 08:14:35;;;;;;;3.53;0.43;;;;;;;;;;5035964;28;20045;-86
2021/10/21 08:17:03;;;;;;;3.47;0.40;;;;;;;;;;5031093;28;20383;-86
2021/10/21 08:19:30;;;;;;;8.45;0.60;;;;;;;;;;4996564;28;20060;-87
2021/10/21 08:21:57;;;;;;;5.68;0.68;;;;;;;;;;5012033;28;20353;-87
2021/10/21 08:24:33;;;;;;;1.63;0.40;;;;;;;;;;5032560;28;20037;-87
2021/10/21 08:27:03;;;;;;;5.03;0.57;;;;;;;;;;5016037;28;20103;-88
2021/10/21 08:29:30;;;;;;;6.13;0.57;;;;;;;;;;5037291;28;20178;-87
2021/10/21 08:32:04;;;;;;;1.80;0.40;;;;;;;;;;5015876;28;20111;-87
2021/10/21 08:34:35;;;;;;;6.93;0.57;;;;;;;;;;5015133;28;20331;-89
2021/10/21 08:37:07;;;;;;;5.43;1.05;;;;;;;;;;5016209;28;20495;-88
2021/10/21 08:39:45;;;;;;;5.72;0.80;;;;;;;;;;5016439;28;20064;-88
2021/10/21 08:42:16;;;;;;;7.72;1.00;;;;;;;;;;5015145;28;20061;-87
2021/10/21 08:45:12;;;;;;;7.07;1.33;;;;;;;;;;5018674;28;20049;-88
2021/10/21 08:47:50;;;;;;;4.88;0.82;;;;;;;;;;5003319;28;20074;-85
2021/10/21 08:50:34;;;;;;;8.95;1.10;;;;;;;;;;4992814;28;20061;-85
2021/10/21 08:53:08;;;;;;;11.15;1.05;;;;;;;;;;4962988;28;20051;-86
2021/10/21 08:55:37;;;;;;;8.65;1.50;;;;;;;;;;4981792;28;20063;-85
2021/10/21 08:58:08;;;;;;;8.43;1.33;;;;;;;;;;4985037;28;20050;-85
2021/10/21 09:00:52;;;;;;;10.25;1.20;;;;;;;;;;5006105;28;20100;-85
2021/10/21 09:03:41;;;;;;;10.98;1.23;;;;;;;;;;4998041;28;20070;-86
2021/10/21 09:06:29;;;;;;;8.48;1.33;;;;;;;;;;4984429;28;20051;-86
2021/10/21 09:09:34;;;;;;;10.95;1.63;;;;;;;;;;4982147;28;20106;-86
2021/10/21 09:12:19;;;;;;;;;;;;;;;;;;;;;
2021/10/21 09:15:17;;;;;;;11.90;1.02;;;;;;;;;;4998070;28;20050;-87
2021/10/21 09:18:14;;;;;;;11.10;2.10;;;;;;;;;;4982514;28;20082;-87
2021/10/21 09:20:54;;;;;;;8.10;1.05;;;;;;;;;;4997874;28;20066;-85
2021/10/21 09:23:38;;;;;;;14.23;1.55;;;;;;;;;;4984975;28;20055;-86
2021/10/21 09:26:09;;;;;;;5.93;0.85;;;;;;;;;;4979752;28;20116;-86
2021/10/21 09:28:37;;;;;;;7.30;1.20;;;;;;;;;;4978227;28;20604;-86
2021/10/21 09:31:09;;;;;;;11.90;1.33;;;;;;;;;;4978525;28;20056;-87
2021/10/21 09:34:05;;;;;;;9.25;2.25;;;;;;;;;;5111035;27;20714;-86
2021/10/21 09:36:36;;;;;;;5.82;1.08;;;;;;;;;;5075724;28;20072;-85
2021/10/21 09:42:11;;;;;;;5.32;0.98;;;;;;;;;;5098078;28;20070;-86
2021/10/21 09:45:15;;;;;;;5.85;0.90;;;;;;;;;;5073023;28;20064;-86
2021/10/21 09:48:02;;;;;;;5.97;0.80;;;;;;;;;;5075950;28;20443;-85
2021/10/21 09:51:04;;;;;;;;;;;;;;;;;;;;;
2021/10/21 09:54:03;;;;;;;11.25;1.38;;;;;;;;;;5069866;28;20106;-86
2021/10/21 09:56:53;;;;;;;3.67;0.75;;;;;;;;;;5050643;28;20110;-86
2021/10/21 09:59:25;;;;;;;4.28;1.50;;;;;;;;;;5054781;28;20107;-85
2021/10/21 10:02:10;;;;;;;3.45;0.73;;;;;;;;;;5086066;28;20057;-86
2021/10/21 10:04:53;;;;;;;5.68;0.68;;;;;;;;;;5071011;28;20193;-84
2021/10/21 10:07:29;;;;;;;4.07;0.70;;;;;;;;;;5067552;28;20040;-85
2021/10/21 10:10:06;;;;;;;6.25;0.80;;;;;;;;;;5064721;28;20095;-86
2021/10/21 10:12:49;;;;;;;3.80;0.63;;;;;;;;;;5063502;28;20305;-85
2021/10/21 10:15:50;;;;;;;4.90;0.82;;;;;;;;;;5046735;28;20128;-86
2021/10/21 10:18:22;;;;;;;9.95;1.05;;;;;;;;;;5061318;28;20045;-86
2021/10/21 10:21:05;;;;;;;9.02;0.70;;;;;;;;;;5075264;28;20041;-87
2021/10/21 10:23:34;;;;;;;2.53;0.55;;;;;;;;;;5089859;28;20177;-85
2021/10/21 10:26:11;;;;;;;7.15;0.80;;;;;;;;;;5087629;28;20052;-85
2021/10/21 10:28:57;;;;;;;7.43;0.98;;;;;;;;;;5075909;28;20104;-86
2021/10/21 10:31:44;;;;;;;9.10;0.63;;;;;;;;;;5067177;28;20063;-85
2021/10/21 10:34:30;;;;;;;5.82;1.25;;;;;;;;;;5067389;28;20114;-86
2021/10/21 10:37:19;;;;;;;6.38;0.65;;;;;;;;;;5066060;28;20493;-86
2021/10/21 10:39:48;;;;;;;7.72;1.00;;;;;;;;;;5043904;28;20548;-85
2021/10/21 10:42:31;;;;;;;8.80;0.95;;;;;;;;;;5064159;28;20099;-85
2021/10/21 10:45:10;;;;;;;7.13;1.00;;;;;;;;;;5056296;28;20199;-85
2021/10/21 10:47:41;;;;;;;6.32;0.82;;;;;;;;;;5053423;28;20056;-84
2021/10/21 10:50:26;;;;;;;3.05;0.55;;;;;;;;;;5052006;28;20048;-84
2021/10/21 10:53:04;;;;;;;6.20;0.70;;;;;;;;;;5061273;28;20324;-85
2021/10/21 10:55:39;;;;;;;10.57;1.00;;;;;;;;;;5058527;28;20055;-85
2021/10/21 10:58:29;;;;;;;7.72;1.73;;;;;;;;;;5050462;28;20079;-84
2021/10/21 11:00:58;;;;;;;7.05;0.98;;;;;;;;;;5055252;28;20049;-85
2021/10/21 11:03:31;;;;;;;4.90;0.85;;;;;;;;;;5054491;28;20240;-84
2021/10/21 11:06:25;;;;;;;4.53;0.55;;;;;;;;;;5054830;28;20056;-85
2021/10/21 11:09:06;;;;;;;5.28;0.77;;;;;;;;;;5055393;28;20059;-85
2021/10/21 11:11:36;;;;;;;9.48;0.90;;;;;;;;;;5056773;28;20059;-85
2021/10/21 11:14:11;;;;;;;7.32;0.80;;;;;;;;;;5055664;28;20212;-84
2021/10/21 11:16:54;;;;;;;4.07;0.57;;;;;;;;;;5068981;28;20238;-84
2021/10/21 11:19:45;;;;;;;5.45;0.80;;;;;;;;;;5069181;28;20049;-84
2021/10/21 11:22:20;;;;;;;6.57;0.80;;;;;;;;;;5055677;28;20048;-85
2021/10/21 11:24:49;;;;;;;4.72;0.70;;;;;;;;;;5071384;28;20073;-84
2021/10/21 11:27:25;;;;;;;5.30;0.77;;;;;;;;;;5055383;28;20072;-84
2021/10/21 11:29:59;;;;;;;5.20;0.80;;;;;;;;;;5055348;28;20068;-85
2021/10/21 11:32:34;;;;;;;7.97;0.82;;;;;;;;;;5053895;28;20135;-83
2021/10/21 11:35:06;;;;;;;7.78;1.20;;;;;;;;;;5066513;28;20222;-85
2021/10/21 11:37:39;;;;;;;5.85;1.08;;;;;;;;;;5052874;28;20408;-85
2021/10/21 11:40:07;;;;;;;10.10;1.02;;;;;;;;;;5054054;28;20080;-84
2021/10/21 11:42:40;;;;;;;5.38;0.80;;;;;;;;;;5052608;28;20057;-84
2021/10/21 11:45:19;;;;;;;6.35;1.05;;;;;;;;;;5054695;28;20222;-85
2021/10/21 11:47:53;;;;;;;5.18;0.88;;;;;;;;;;5064409;28;20045;-85
2021/10/21 11:53:49;;;;;;;7.90;1.30;;;;;;;;;;4988435;28;20085;-84
2021/10/21 11:56:22;;;;;;;5.03;1.05;;;;;;;;;;4971370;28;20268;-85
2021/10/21 11:58:50;;;;;;;8.02;0.52;;;;;;;;;;5024112;28;20045;-84
2021/10/21 12:01:23;;;;;;;2.75;0.60;;;;;;;;;;5051569;28;20053;-86
2021/10/21 12:03:53;;;;;;;2.85;0.65;;;;;;;;;;5056004;28;20061;-87
2021/10/21 12:06:32;;;;;;;18.20;0.80;;;;;;;;;;5056989;28;20269;-89
2021/10/21 12:19:41;;;;;;;;;;;;;;;;;;;;;
2021/10/21 12:37:27;;;;;;;2.40;0.50;;;;;;;;;;5039502;28;20152;-90
2021/10/21 12:40:10;;;;;;;6.43;0.55;;;;;;;;;;5024728;28;20060;-90
2021/10/21 12:42:37;;;;;;;4.72;0.55;;;;;;;;;;5029753;28;20045;-89
2021/10/21 12:45:07;;;;;;;7.78;0.93;;;;;;;;;;5015697;28;20301;-89
2021/10/21 12:47:37;;;;;;;8.00;2.35;;;;;;;;;;5011773;28;20422;-89
2021/10/21 12:50:08;;;;;;;6.05;0.80;;;;;;;;;;5034652;28;20049;-89
2021/10/21 12:52:43;;;;;;;6.47;1.13;;;;;;;;;;5016968;28;20332;-88
2021/10/21 12:55:12;;;;;;;6.50;0.75;;;;;;;;;;5036171;28;20455;-88
2021/10/21 12:57:43;;;;;;;7.53;1.00;;;;;;;;;;5020131;28;20045;-89
2021/10/21 13:00:11;;;;;;;2.78;0.73;;;;;;;;;;5019392;28;20060;-89
2021/10/21 13:02:41;;;;;;;5.57;0.90;;;;;;;;;;5014020;28;20033;-89
2021/10/21 13:05:24;;;;;;;5.18;0.85;;;;;;;;;;5021992;28;20056;-89
2021/10/21 13:07:53;;;;;;;7.53;1.05;;;;;;;;;;5017886;28;20053;-87
2021/10/21 13:10:25;;;;;;;7.95;0.77;;;;;;;;;;5014593;28;20041;-86
2021/10/21 13:12:58;;;;;;;4.57;0.80;;;;;;;;;;5015729;28;20046;-86
2021/10/21 13:15:38;;;;;;;15.90;1.42;;;;;;;;;;5033836;28;20111;-86
2021/10/21 13:18:16;;;;;;;4.70;0.75;;;;;;;;;;5011074;28;20361;-87
2021/10/21 13:20:47;;;;;;;8.38;1.13;;;;;;;;;;5029030;28;20045;-87
2021/10/21 13:23:37;;;;;;;8.68;0.77;;;;;;;;;;5015498;28;20060;-87
2021/10/21 13:26:21;;;;;;;6.22;0.93;;;;;;;;;;5026329;28;20084;-85
2021/10/21 13:28:51;;;;;;;4.40;0.88;;;;;;;;;;5016222;28;20107;-85
2021/10/21 13:31:26;;;;;;;5.85;0.98;;;;;;;;;;5015206;28;20194;-85
2021/10/21 13:34:07;;;;;;;7.82;0.95;;;;;;;;;;5012339;28;20088;-87
2021/10/21 13:36:37;;;;;;;5.25;1.10;;;;;;;;;;5010963;28;20065;-85
2021/10/21 13:39:07;;;;;;;3.63;0.80;;;;;;;;;;5010679;28;20049;-86
2021/10/21 13:41:37;;;;;;;5.80;0.82;;;;;;;;;;5009197;28;20046;-86
2021/10/21 13:44:16;;;;;;;7.68;0.88;;;;;;;;;;5006557;28;20053;-86
2021/10/21 13:46:54;;;;;;;6.28;0.95;;;;;;;;;;5009175;28;20049;-85
2021/10/21 13:49:28;;;;;;;2.47;0.50;;;;;;;;;;5008737;28;20224;-85
2021/10/21 13:51:59;;;;;;;5.57;0.95;;;;;;;;;;5032452;28;20123;-86
2021/10/21 13:54:39;;;;;;;4.95;0.90;;;;;;;;;;5029101;28;20041;-87
2021/10/21 13:57:14;;;;;;;9.57;1.60;;;;;;;;;;5015252;28;20441;-87
2021/10/21 13:59:56;;;;;;;3.95;0.80;;;;;;;;;;5014895;28;20148;-87
2021/10/21 14:02:31;;;;;;;3.55;0.70;;;;;;;;;;5018171;28;20226;-86
2021/10/21 14:05:00;;;;;;;10.00;1.00;;;;;;;;;;5007376;28;20053;-86
2021/10/21 14:07:31;;;;;;;13.55;1.70;;;;;;;;;;5031766;28;20064;-85
2021/10/21 14:09:58;;;;;;;13.40;1.48;;;;;;;;;;5030523;28;20092;-86
2021/10/21 14:12:29;;;;;;;8.25;1.20;;;;;;;;;;5014862;28;20041;-86
2021/10/21 14:14:59;;;;;;;10.45;0.93;;;;;;;;;;5039215;28;20093;-85
2021/10/21 14:20:23;;;;;;;10.10;1.05;;;;;;;;;;5034941;28;20068;-86
2021/10/21 14:23:06;;;;;;;7.38;1.17;;;;;;;;;;5024810;28;20052;-85
2021/10/21 14:25:55;;;;;;;7.63;1.10;;;;;;;;;;5035751;28;20130;-86
2021/10/21 14:28:23;;;;;;;10.32;1.13;;;;;;;;;;5042437;28;20049;-86
2021/10/21 14:30:50;;;;;;;5.65;1.23;;;;;;;;;;5038419;28;20105;-86
2021/10/21 14:33:36;;;;;;;;;;;;;;;;;;5033347;28;20205;-86
2021/10/21 14:36:04;;;;;;;7.50;1.35;;;;;;;;;;5006701;28;20108;-86
2021/10/21 14:38:34;;;;;;;13.90;1.13;;;;;;;;;;4990519;28;20171;-86
2021/10/21 14:41:01;;;;;;;9.07;1.20;;;;;;;;;;4997843;28;20296;-86
2021/10/21 14:43:30;;;;;;;6.97;1.08;;;;;;;;;;5003959;28;20056;-86
2021/10/21 14:46:01;;;;;;;11.82;1.50;;;;;;;;;;4997988;28;20092;-85
2021/10/21 14:48:28;;;;;;;12.15;1.50;;;;;;;;;;4996468;28;20382;-86
2021/10/21 14:51:00;;;;;;;6.38;1.30;;;;;;;;;;5003702;28;20078;-84
2021/10/21 14:53:30;;;;;;;9.38;1.35;;;;;;;;;;5000212;28;20156;-84
2021/10/21 14:59:23;;;;;;;11.98;1.27;;;;;;;;;;4999248;28;20261;-86
2021/10/21 15:01:56;;;;;;;12.52;1.35;;;;;;;;;;4998655;28;20338;-88
2021/10/21 15:04:25;;;;;;;10.27;1.50;;;;;;;;;;5008299;28;20065;-87
2021/10/21 15:25:10;;;;;;;22.27;3.40;;;;;;;;;;5001474;28;20126;-85
2021/10/21 15:27:40;;;;;;;16.13;2.95;;;;;;;;;;5013368;28;20430;-86
2021/10/21 15:30:09;;;;;;;17.00;2.15;;;;;;;;;;5007197;28;20056;-86
2021/10/21 15:32:36;;;;;;;14.18;2.00;;;;;;;;;;5007241;28;20123;-86
2021/10/21 15:35:04;;;;;;;17.02;1.98;;;;;;;;;;5001927;28;20061;-86
2021/10/21 15:37:31;;;;;;;16.10;2.13;;;;;;;;;;5024130;28;20192;-86
2021/10/21 15:40:02;;;;;;;15.60;1.83;;;;;;;;;;5024681;28;20056;-86
2021/10/21 15:42:31;;;;;;;13.05;1.35;;;;;;;;;;5025143;28;20045;-87
2021/10/21 15:47:51;;;;;;;8.25;1.40;;;;;;;;;;5040992;28;20107;-87
2021/10/21 16:13:04;;;;;;;19.08;1.52;;;;;;;;;;5032285;28;20453;-84
2021/10/21 16:15:34;;;;;;;22.55;2.97;;;;;;;;;;5008482;28;20182;-85
2021/10/21 16:18:06;;;;;;;25.05;2.63;;;;;;;;;;5016107;28;20136;-86
2021/10/21 16:20:41;;;;;;;9.63;2.30;;;;;;;;;;5010239;28;20122;-86
2021/10/21 16:23:13;;;;;;;16.92;2.65;;;;;;;;;;5012101;28;20037;-86
2021/10/21 16:28:17;;;;;;;25.08;2.80;;;;;;;;;;5027568;28;20041;-85
2021/10/21 16:30:44;;;;;;;17.98;2.75;;;;;;;;;;5009754;28;20037;-86
2021/10/21 16:33:11;;;;;;;21.33;2.40;;;;;;;;;;5007360;28;20100;-85
2021/10/21 16:35:43;;;;;;;22.77;3.60;;;;;;;;;;5006733;28;20088;-85
2021/10/21 16:38:16;;;;;;;15.50;2.50;;;;;;;;;;5009947;28;20176;-85
2021/10/21 16:40:52;;;;;;;24.50;2.83;;;;;;;;;;5011846;28;20258;-86
2021/10/21 16:43:19;;;;;;;15.38;2.33;;;;;;;;;;5011773;28;20108;-86
2021/10/21 16:45:46;;;;;;;22.05;3.20;;;;;;;;;;5016052;28;20045;-85
2021/10/21 16:48:16;;;;;;;22.63;3.40;;;;;;;;;;5033889;28;20183;-86
2021/10/21 16:50:43;;;;;;;12.55;1.70;;;;;;;;;;5013268;28;20455;-86
2021/10/21 16:53:10;;;;;;;11.45;1.80;;;;;;;;;;5013302;28;20060;-86
2021/10/21 16:55:39;;;;;;;9.57;1.63;;;;;;;;;;5012311;28;20076;-86
2021/10/21 16:58:08;;;;;;;6.40;1.50;;;;;;;;;;5005009;28;20234;-85
2021/10/21 17:00:45;;;;;;;9.27;1.27;;;;;;;;;;5012756;28;20232;-86
2021/10/21 17:03:15;;;;;;;11.30;1.80;;;;;;;;;;5029282;28;20077;-85
2021/10/21 17:05:42;;;;;;;7.35;1.33;;;;;;;;;;5028516;28;20115;-85
2021/10/21 17:08:09;;;;;;;9.85;1.33;;;;;;;;;;5012164;28;20271;-85
2021/10/21 17:10:39;;;;;;;12.27;2.92;;;;;;;;;;5012046;28;20052;-85
2021/10/21 17:13:07;;;;;;;8.10;2.17;;;;;;;;;;5025928;28;20157;-85
2021/10/21 17:15:34;;;;;;;14.18;1.55;;;;;;;;;;5007038;28;20041;-85
2021/10/21 17:18:07;;;;;;;10.10;1.60;;;;;;;;;;5011518;28;20053;-85
2021/10/21 17:20:35;;;;;;;14.13;1.98;;;;;;;;;;5007949;28;20274;-84
2021/10/21 17:23:04;;;;;;;13.35;1.90;;;;;;;;;;5009717;28;20324;-84
2021/10/21 17:25:34;;;;;;;11.70;1.90;;;;;;;;;;5021532;28;20072;-84
2021/10/21 17:28:01;;;;;;;13.82;1.77;;;;;;;;;;5024443;28;20077;-84
2021/10/21 17:30:34;;;;;;;10.48;1.25;;;;;;;;;;5029083;28;20129;-84
2021/10/21 17:33:01;;;;;;;6.30;1.60;;;;;;;;;;5025597;28;20057;-85
2021/10/21 17:35:28;;;;;;;8.98;1.63;;;;;;;;;;5026825;28;20233;-85
2021/10/21 17:37:55;;;;;;;8.50;1.35;;;;;;;;;;5025898;28;20088;-85
2021/10/21 17:40:27;;;;;;;14.98;1.70;;;;;;;;;;5021677;28;20066;-85
2021/10/21 17:42:58;;;;;;;11.32;1.60;;;;;;;;;;5024775;28;20147;-85
2021/10/21 17:45:25;;;;;;;10.50;1.42;;;;;;;;;;5028027;28;20071;-85
2021/10/21 17:47:52;;;;;;;13.40;1.88;;;;;;;;;;5008653;28;20213;-85
2021/10/21 17:50:19;;;;;;;14.60;1.75;;;;;;;;;;5007423;28;20126;-85
2021/10/21 17:52:46;;;;;;;10.98;1.50;;;;;;;;;;5009444;28;20076;-84
2021/10/21 17:55:13;;;;;;;26.35;2.25;;;;;;;;;;5012582;28;20069;-85
2021/10/21 17:57:40;;;;;;;17.98;2.17;;;;;;;;;;5016732;28;20121;-85
2021/10/21 18:00:07;;;;;;;16.63;2.30;;;;;;;;;;5013103;28;20053;-84